createdAt,value
2018-12-21T00:00:17.624Z,13.10
2018-12-21T00:02:45.195Z,17.40
2018-12-21T00:05:14.244Z,15.70
2018-12-21T00:10:55.738Z,10.40
2018-12-21T00:13:23.717Z,17.37
2018-12-21T00:15:51.219Z,15.07
2018-12-21T00:18:18.641Z,16.57
2018-12-21T00:20:46.331Z,18.17
2018-12-21T00:23:13.861Z,17.67
2018-12-21T00:25:42.370Z,9.70
2018-12-21T00:28:09.725Z,13.93
2018-12-21T00:30:37.363Z,15.17
2018-12-21T00:33:11.650Z,11.63
2018-12-21T00:35:44.480Z,11.10
2018-12-21T00:38:17.276Z,14.90
2018-12-21T00:40:51.209Z,12.47
2018-12-21T00:43:35.122Z,9.17
2018-12-21T00:46:08.040Z,11.60
2018-12-21T00:48:35.675Z,10.67
2018-12-21T00:51:03.444Z,15.23
2018-12-21T00:53:31.013Z,11.37
2018-12-21T00:55:58.480Z,17.70
2018-12-21T00:58:26.010Z,12.27
2018-12-21T01:00:53.535Z,11.43
2018-12-21T01:03:21.054Z,13.93
2018-12-21T01:05:48.684Z,9.93
2018-12-21T01:08:16.333Z,13.03
2018-12-21T01:10:43.776Z,12.87
2018-12-21T01:13:11.990Z,13.60
2018-12-21T01:15:40.315Z,19.23
2018-12-21T01:18:08.033Z,11.20
2018-12-21T01:20:36.788Z,17.57
2018-12-21T01:23:04.289Z,20.37
2018-12-21T01:25:31.912Z,20.73
2018-12-21T01:27:59.911Z,17.50
2018-12-21T01:30:27.333Z,20.43
2018-12-21T01:32:55.032Z,16.67
2018-12-21T01:35:22.466Z,19.27
2018-12-21T01:37:49.960Z,16.03
2018-12-21T01:40:17.537Z,14.80
2018-12-21T01:42:45.166Z,14.20
2018-12-21T01:45:12.638Z,9.30
2018-12-21T01:47:40.090Z,14.63
2018-12-21T01:50:07.586Z,14.03
2018-12-21T01:52:35.090Z,15.40
2018-12-21T01:55:02.556Z,16.27
2018-12-21T01:57:30.010Z,15.00
2018-12-21T02:03:03.943Z,16.33
2018-12-21T02:05:31.388Z,12.13
2018-12-21T02:07:58.889Z,21.17
2018-12-21T02:10:27.178Z,16.50
2018-12-21T02:12:55.612Z,11.53
2018-12-21T02:15:23.817Z,13.37
2018-12-21T02:17:51.335Z,17.93
2018-12-21T02:20:19.336Z,8.07
2018-12-21T02:22:50.369Z,15.80
2018-12-21T02:25:17.943Z,10.27
2018-12-21T02:27:49.733Z,13.07
2018-12-21T02:30:17.287Z,12.17
2018-12-21T02:32:44.762Z,13.97
2018-12-21T02:35:12.244Z,9.80
2018-12-21T02:37:39.807Z,11.43
2018-12-21T02:40:07.226Z,11.57
2018-12-21T02:42:34.871Z,15.87
2018-12-21T02:45:02.432Z,11.30
2018-12-21T02:47:29.972Z,17.07
2018-12-21T02:49:57.497Z,10.23
2018-12-21T02:52:24.943Z,10.10
2018-12-21T02:54:52.912Z,15.97
2018-12-21T02:57:20.629Z,15.17
2018-12-21T02:59:48.208Z,15.70
2018-12-21T03:02:15.703Z,15.40
2018-12-21T03:04:43.122Z,14.03
2018-12-21T03:07:10.618Z,14.13
2018-12-21T03:09:38.167Z,12.30
2018-12-21T03:12:05.646Z,15.53
2018-12-21T03:14:33.564Z,19.30
2018-12-21T03:17:01.224Z,17.93
2018-12-21T03:19:29.766Z,14.93
2018-12-21T03:21:57.409Z,12.13
2018-12-21T03:24:24.899Z,14.60
2018-12-21T03:26:52.336Z,18.50
2018-12-21T03:29:19.787Z,17.33
2018-12-21T03:41:07.487Z,13.13
2018-12-21T03:43:35.185Z,20.20
2018-12-21T03:46:02.730Z,17.83
2018-12-21T03:48:30.380Z,16.13
2018-12-21T03:50:58.021Z,14.77
2018-12-21T03:53:25.512Z,13.33
2018-12-21T03:55:53.939Z,17.67
2018-12-21T03:58:21.464Z,16.47
2018-12-21T04:00:48.972Z,15.90
2018-12-21T04:03:16.609Z,15.33
2018-12-21T04:05:52.073Z,12.43
2018-12-21T04:08:19.459Z,12.20
2018-12-21T04:10:49.126Z,14.83
2018-12-21T04:13:16.614Z,13.10
2018-12-21T04:15:44.286Z,11.70
2018-12-21T04:18:11.758Z,12.53
2018-12-21T04:20:39.223Z,13.70
2018-12-21T04:23:08.858Z,14.13
2018-12-21T04:25:36.318Z,17.23
2018-12-21T04:28:04.028Z,11.20
2018-12-21T04:30:31.543Z,10.30
2018-12-21T04:32:59.089Z,9.63
2018-12-21T04:35:52.483Z,10.80
2018-12-21T04:38:19.990Z,13.77
2018-12-21T04:40:47.528Z,10.10
2018-12-21T04:43:15.023Z,11.30
2018-12-21T04:45:42.451Z,11.23
2018-12-21T04:48:11.639Z,6.60
2018-12-21T04:50:39.118Z,8.70
2018-12-21T04:53:06.610Z,9.43
2018-12-21T04:55:34.035Z,10.07
2018-12-21T04:58:07.528Z,9.13
2018-12-21T05:00:34.996Z,8.27
2018-12-21T05:03:02.445Z,9.23
2018-12-21T05:05:29.938Z,10.00
2018-12-21T05:07:57.344Z,7.47
2018-12-21T05:10:24.871Z,9.67
2018-12-21T05:12:53.111Z,11.47
2018-12-21T05:15:20.573Z,7.93
2018-12-21T05:17:48.134Z,7.27
2018-12-21T05:20:15.626Z,6.33
2018-12-21T05:22:52.046Z,5.27
2018-12-21T05:25:12.728Z,4.83
2018-12-21T05:27:40.290Z,7.97
2018-12-21T05:30:08.186Z,5.37
2018-12-21T05:32:35.763Z,7.43
2018-12-21T05:38:11.342Z,7.60
2018-12-21T05:40:38.917Z,5.50
2018-12-21T05:43:06.868Z,5.37
2018-12-21T05:45:34.416Z,8.27
2018-12-21T05:48:09.424Z,9.47
2018-12-21T05:50:36.893Z,7.03
2018-12-21T05:53:04.392Z,7.43
2018-12-21T05:55:31.946Z,11.80
2018-12-21T05:58:00.239Z,10.47
2018-12-21T06:00:27.685Z,9.90
2018-12-21T06:02:55.732Z,12.47
2018-12-21T06:05:23.994Z,9.80
2018-12-21T06:08:01.730Z,11.10
2018-12-21T06:10:29.680Z,13.70
2018-12-21T06:12:57.138Z,14.73
2018-12-21T06:15:24.574Z,15.17
2018-12-21T06:17:52.146Z,14.43
2018-12-21T06:20:19.788Z,10.97
2018-12-21T06:22:47.243Z,16.53
2018-12-21T06:25:14.685Z,16.67
2018-12-21T06:27:42.182Z,16.33
2018-12-21T06:30:11.495Z,15.33
2018-12-21T06:32:43.090Z,17.00
2018-12-21T06:35:11.262Z,14.30
2018-12-21T06:37:38.917Z,14.17
2018-12-21T06:40:06.598Z,18.67
2018-12-21T06:42:34.146Z,16.30
2018-12-21T06:45:06.133Z,13.37
2018-12-21T06:47:33.587Z,20.30
2018-12-21T06:50:01.098Z,16.23
2018-12-21T06:52:29.281Z,18.40
2018-12-21T06:54:57.701Z,15.00
2018-12-21T06:57:25.246Z,18.87
2018-12-21T06:59:52.784Z,16.37
2018-12-21T07:02:20.317Z,16.23
2018-12-21T07:04:47.936Z,18.90
2018-12-21T07:07:16.005Z,20.47
2018-12-21T07:09:43.850Z,18.97
2018-12-21T07:12:11.708Z,23.40
2018-12-21T07:14:40.453Z,21.23
2018-12-21T07:17:08.042Z,25.60
2018-12-21T07:19:36.602Z,26.93
2018-12-21T07:22:04.449Z,25.87
2018-12-21T07:24:32.629Z,28.67
2018-12-21T07:27:00.216Z,32.70
2018-12-21T07:29:27.656Z,16.10
2018-12-21T07:31:55.193Z,18.63
2018-12-21T07:34:22.832Z,21.57
2018-12-21T07:36:50.494Z,17.47
2018-12-21T07:39:18.237Z,17.47
2018-12-21T07:41:46.427Z,22.73
2018-12-21T07:44:15.059Z,12.10
2018-12-21T07:46:42.610Z,16.43
2018-12-21T07:49:10.016Z,8.80
2018-12-21T07:51:37.523Z,8.23
2018-12-21T07:54:04.978Z,6.90
2018-12-21T07:56:32.548Z,9.40
2018-12-21T07:59:00.101Z,8.60
2018-12-21T08:01:27.550Z,7.40
2018-12-21T08:03:55.144Z,5.07
2018-12-21T08:06:22.609Z,4.63
2018-12-21T08:08:50.139Z,7.30
2018-12-21T08:11:17.658Z,6.40
2018-12-21T08:13:45.641Z,3.90
2018-12-21T08:16:13.201Z,4.67
2018-12-21T08:18:40.693Z,3.63
2018-12-21T08:21:08.262Z,5.27
2018-12-21T08:23:44.102Z,3.83
2018-12-21T08:26:05.985Z,4.77
2018-12-21T08:28:33.478Z,3.43
2018-12-21T08:31:00.910Z,3.57
2018-12-21T08:33:28.402Z,3.03
2018-12-21T08:35:55.871Z,3.90
2018-12-21T08:38:23.386Z,7.40
2018-12-21T08:40:50.835Z,8.57
2018-12-21T08:43:18.403Z,15.53
2018-12-21T08:45:46.520Z,15.13
2018-12-21T08:48:14.159Z,20.83
2018-12-21T08:50:41.771Z,23.57
2018-12-21T08:53:10.069Z,20.30
2018-12-21T08:55:41.647Z,17.17
2018-12-21T08:58:13.514Z,15.47
2018-12-21T09:00:41.005Z,14.27
2018-12-21T09:03:08.604Z,12.37
2018-12-21T09:05:36.764Z,10.90
2018-12-21T09:08:04.320Z,11.63
2018-12-21T09:10:32.015Z,15.63
2018-12-21T09:13:20.837Z,16.30
2018-12-21T09:15:48.358Z,14.93
2018-12-21T09:18:16.181Z,18.93
2018-12-21T09:20:43.655Z,13.10
2018-12-21T09:23:11.226Z,22.00
2018-12-21T09:25:42.747Z,19.17
2018-12-21T09:28:10.204Z,23.20
2018-12-21T09:30:37.917Z,21.97
2018-12-21T09:33:05.530Z,24.87
2018-12-21T09:35:33.746Z,16.80
2018-12-21T09:38:01.547Z,25.07
2018-12-21T09:40:29.152Z,28.90
2018-12-21T09:43:22.282Z,31.23
2018-12-21T09:45:51.362Z,22.37
2018-12-21T09:48:19.740Z,32.70
2018-12-21T09:50:48.418Z,17.50
2018-12-21T09:53:16.239Z,32.23
2018-12-21T09:55:43.879Z,22.20
2018-12-21T09:58:11.453Z,23.50
2018-12-21T10:00:42.735Z,25.60
2018-12-21T10:03:10.329Z,36.57
2018-12-21T10:05:42.322Z,31.37
2018-12-21T10:08:09.896Z,19.10
2018-12-21T10:10:37.495Z,29.47
2018-12-21T10:13:09.343Z,31.13
2018-12-21T10:15:37.461Z,24.17
2018-12-21T10:18:07.254Z,28.53
2018-12-21T10:20:34.813Z,25.00
2018-12-21T10:23:02.488Z,27.60
2018-12-21T10:25:29.975Z,42.83
2018-12-21T10:27:57.572Z,33.67
2018-12-21T10:30:25.134Z,26.03
2018-12-21T10:32:52.729Z,21.93
2018-12-21T10:35:20.608Z,21.63
2018-12-21T10:37:48.642Z,23.93
2018-12-21T10:40:20.164Z,25.67
2018-12-21T10:42:52.658Z,27.63
2018-12-21T10:45:20.401Z,31.17
2018-12-21T10:47:48.153Z,27.47
2018-12-21T10:50:16.602Z,23.87
2018-12-21T10:52:44.221Z,24.63
2018-12-21T10:55:12.361Z,24.57
2018-12-21T10:57:40.700Z,27.13
2018-12-21T11:00:10.843Z,26.40
2018-12-21T11:02:40.005Z,31.07
2018-12-21T11:05:07.792Z,24.70
2018-12-21T11:07:36.949Z,21.00
2018-12-21T11:10:09.520Z,32.13
2018-12-21T11:12:38.189Z,22.23
2018-12-21T11:15:06.914Z,25.90
2018-12-21T11:17:34.650Z,34.17
2018-12-21T11:20:06.520Z,30.37
2018-12-21T11:22:38.439Z,22.63
2018-12-21T11:25:07.387Z,23.30
2018-12-21T11:27:37.163Z,27.57
2018-12-21T11:30:05.716Z,27.73
2018-12-21T11:32:34.391Z,25.60
2018-12-21T11:35:02.463Z,25.53
2018-12-21T11:37:30.198Z,26.00
2018-12-21T11:39:58.520Z,20.23
2018-12-21T11:42:26.424Z,30.80
2018-12-21T11:44:53.993Z,21.97
2018-12-21T11:47:22.277Z,22.80
2018-12-21T11:49:51.996Z,25.07
2018-12-21T11:52:19.516Z,21.53
2018-12-21T11:54:47.932Z,28.47
2018-12-21T11:57:17.991Z,28.37
2018-12-21T11:59:46.603Z,26.10
2018-12-21T12:02:19.750Z,22.70
2018-12-21T12:04:50.986Z,22.90
2018-12-21T12:07:19.191Z,17.50
2018-12-21T12:09:47.228Z,14.87
2018-12-21T12:12:20.523Z,21.23
2018-12-21T12:14:49.027Z,21.23
2018-12-21T12:17:21.084Z,22.73
2018-12-21T12:19:53.109Z,17.87
2018-12-21T12:22:21.619Z,16.97
2018-12-21T12:24:52.929Z,17.13
2018-12-21T12:27:19.031Z,18.80
2018-12-21T12:29:47.051Z,22.73
2018-12-21T12:32:14.835Z,18.60
2018-12-21T12:34:44.834Z,22.23
2018-12-21T12:37:12.741Z,20.70
2018-12-21T12:39:40.258Z,25.90
2018-12-21T12:42:07.786Z,26.63
2018-12-21T12:44:35.379Z,22.73
2018-12-21T12:47:02.932Z,25.87
2018-12-21T12:49:30.532Z,28.53
2018-12-21T12:51:58.125Z,22.37
2018-12-21T12:54:27.073Z,30.60
2018-12-21T12:56:54.657Z,29.67
2018-12-21T12:59:23.106Z,22.63
2018-12-21T13:01:50.847Z,26.80
2018-12-21T13:04:18.453Z,29.30
2018-12-21T13:06:46.668Z,27.57
2018-12-21T13:09:14.364Z,34.43
2018-12-21T13:11:41.909Z,29.47
2018-12-21T13:14:09.468Z,33.53
2018-12-21T13:16:37.570Z,38.57
2018-12-21T13:19:05.205Z,29.37
2018-12-21T13:21:32.875Z,27.83
2018-12-21T13:24:00.586Z,28.87
2018-12-21T13:26:32.707Z,35.70
2018-12-21T13:29:00.247Z,34.63
2018-12-21T13:31:27.856Z,28.73
2018-12-21T13:33:55.449Z,33.33
2018-12-21T13:36:24.014Z,35.87
2018-12-21T13:38:51.507Z,36.90
2018-12-21T13:41:19.037Z,37.50
2018-12-21T13:43:46.778Z,26.67
2018-12-21T13:46:14.408Z,31.83
2018-12-21T13:48:41.914Z,28.40
2018-12-21T13:51:09.820Z,32.13
2018-12-21T13:53:43.027Z,40.23
2018-12-21T13:56:10.617Z,24.53
2018-12-21T13:58:38.291Z,22.87
2018-12-21T14:01:05.856Z,30.17
2018-12-21T14:03:33.376Z,26.03
2018-12-21T14:06:00.986Z,28.53
2018-12-21T14:08:28.933Z,27.67
2018-12-21T14:10:56.483Z,23.73
2018-12-21T14:13:24.608Z,20.00
2018-12-21T14:15:52.116Z,28.37
2018-12-21T14:18:20.266Z,29.67
2018-12-21T14:20:47.778Z,23.37
2018-12-21T14:23:15.788Z,29.17
2018-12-21T14:25:47.176Z,24.63
2018-12-21T14:28:14.761Z,32.77
2018-12-21T14:30:42.392Z,26.57
2018-12-21T14:33:10.056Z,27.87
2018-12-21T14:35:38.028Z,25.63
2018-12-21T14:38:05.873Z,29.07
2018-12-21T14:40:33.734Z,28.63
2018-12-21T14:43:01.332Z,25.83
2018-12-21T14:45:29.374Z,32.37
2018-12-21T14:47:57.875Z,26.57
2018-12-21T14:50:25.374Z,25.83
2018-12-21T14:52:53.438Z,30.57
2018-12-21T14:55:22.029Z,29.60
2018-12-21T14:57:49.547Z,27.23
2018-12-21T15:00:17.651Z,29.20
2018-12-21T15:02:46.169Z,26.17
2018-12-21T15:05:13.767Z,29.63
2018-12-21T15:07:42.338Z,24.00
2018-12-21T15:10:11.416Z,25.37
2018-12-21T15:12:39.020Z,25.47
2018-12-21T15:15:07.963Z,22.07
2018-12-21T15:17:35.555Z,25.33
2018-12-21T15:20:04.195Z,28.60
2018-12-21T15:22:31.773Z,24.77
2018-12-21T15:24:59.656Z,23.13
2018-12-21T15:27:27.302Z,25.03
2018-12-21T15:29:58.182Z,31.10
2018-12-21T15:32:27.424Z,26.03
2018-12-21T15:35:01.829Z,25.97
2018-12-21T15:37:29.353Z,33.30
2018-12-21T15:39:57.315Z,39.40
2018-12-21T15:42:29.194Z,29.50
2018-12-21T15:44:57.524Z,28.43
2018-12-21T15:47:31.528Z,37.13
2018-12-21T15:49:59.098Z,28.23
2018-12-21T15:52:26.718Z,29.50
2018-12-21T15:54:54.992Z,33.03
2018-12-21T15:57:22.507Z,27.50
2018-12-21T15:59:51.430Z,31.03
2018-12-21T16:02:18.985Z,21.20
2018-12-21T16:04:47.520Z,28.50
2018-12-21T16:07:15.664Z,25.57
2018-12-21T16:09:43.706Z,29.03
2018-12-21T16:12:11.285Z,35.97
2018-12-21T16:14:43.147Z,30.10
2018-12-21T16:17:10.679Z,28.10
2018-12-21T16:19:38.652Z,26.87
2018-12-21T16:22:06.287Z,28.13
2018-12-21T16:24:35.483Z,34.40
2018-12-21T16:27:03.297Z,28.73
2018-12-21T16:29:30.838Z,37.33
2018-12-21T16:31:58.367Z,30.10
2018-12-21T16:34:25.950Z,32.93
2018-12-21T16:36:53.427Z,30.70
2018-12-21T16:39:20.911Z,31.97
2018-12-21T16:41:48.439Z,32.77
2018-12-21T16:44:15.964Z,28.37
2018-12-21T16:46:43.414Z,27.30
2018-12-21T16:49:11.053Z,26.10
2018-12-21T16:51:38.635Z,29.87
2018-12-21T16:54:06.139Z,25.83
2018-12-21T16:56:33.625Z,39.33
2018-12-21T16:59:01.844Z,30.50
2018-12-21T17:01:30.043Z,32.03
2018-12-21T17:04:02.884Z,25.07
2018-12-21T17:06:30.359Z,26.87
2018-12-21T17:09:02.576Z,31.00
2018-12-21T17:11:30.126Z,27.97
2018-12-21T17:13:57.617Z,27.43
2018-12-21T17:16:25.668Z,30.27
2018-12-21T17:18:53.252Z,34.10
2018-12-21T17:21:20.877Z,25.53
2018-12-21T17:23:48.835Z,22.87
2018-12-21T17:26:21.196Z,29.73
2018-12-21T17:28:46.982Z,33.97
2018-12-21T17:31:15.551Z,35.57
2018-12-21T17:33:43.075Z,31.30
2018-12-21T17:36:11.638Z,29.63
2018-12-21T17:38:40.223Z,26.43
2018-12-21T17:41:08.320Z,31.97
2018-12-21T17:43:35.912Z,27.10
2018-12-21T17:46:03.959Z,28.43
2018-12-21T17:48:31.507Z,26.20
2018-12-21T17:50:59.066Z,23.00
2018-12-21T17:53:26.763Z,24.87
2018-12-21T17:55:54.312Z,32.77
2018-12-21T17:58:21.796Z,24.53
2018-12-21T18:00:49.738Z,12.87
2018-12-21T18:03:23.248Z,6.77
2018-12-21T18:05:52.094Z,7.27
2018-12-21T18:08:20.194Z,9.70
2018-12-21T18:10:48.081Z,5.20
2018-12-21T18:13:19.516Z,8.93
2018-12-21T18:15:47.074Z,10.10
2018-12-21T18:18:14.554Z,10.50
2018-12-21T18:20:42.085Z,10.60
2018-12-21T18:23:10.057Z,11.57
2018-12-21T18:25:37.570Z,9.73
2018-12-21T18:28:10.810Z,8.03
2018-12-21T18:30:38.286Z,12.83
2018-12-21T18:33:10.797Z,7.07
2018-12-21T18:35:37.167Z,11.43
2018-12-21T18:38:05.889Z,6.30
2018-12-21T18:40:33.587Z,6.63
2018-12-21T18:43:01.022Z,10.30
2018-12-21T18:45:28.760Z,7.07
2018-12-21T18:47:56.849Z,8.40
2018-12-21T18:50:30.105Z,9.27
2018-12-21T18:53:00.122Z,13.30
2018-12-21T18:55:28.493Z,13.53
2018-12-21T18:57:56.051Z,10.13
2018-12-21T19:00:24.341Z,9.67
2018-12-21T19:02:51.906Z,10.50
2018-12-21T19:05:19.507Z,9.67
2018-12-21T19:07:47.056Z,12.67
2018-12-21T19:10:14.474Z,5.30
2018-12-21T19:12:46.825Z,12.17
2018-12-21T19:15:14.429Z,7.57
2018-12-21T19:17:43.000Z,9.63
2018-12-21T19:20:12.409Z,8.83
2018-12-21T19:22:40.134Z,10.73
2018-12-21T19:25:08.802Z,9.07
2018-12-21T19:27:36.402Z,7.43
2018-12-21T19:30:04.305Z,7.13
2018-12-21T19:32:32.376Z,6.77
2018-12-21T19:35:00.577Z,9.80
2018-12-21T19:37:28.135Z,9.13
2018-12-21T19:39:55.626Z,10.73
2018-12-21T19:42:23.083Z,9.57
2018-12-21T19:44:50.781Z,14.80
2018-12-21T19:47:18.827Z,9.80
2018-12-21T19:49:46.397Z,11.57
2018-12-21T19:52:14.744Z,7.90
2018-12-21T19:54:42.408Z,10.97
2018-12-21T19:57:11.163Z,7.37
2018-12-21T19:59:38.686Z,10.20
2018-12-21T20:02:07.285Z,5.20
2018-12-21T20:04:35.624Z,11.13
2018-12-21T20:07:03.123Z,7.47
2018-12-21T20:09:30.940Z,6.30
2018-12-21T20:11:59.480Z,6.20
2018-12-21T20:14:27.181Z,7.57
2018-12-21T20:20:01.245Z,11.57
2018-12-21T20:22:28.714Z,12.20
2018-12-21T20:24:58.184Z,12.27
2018-12-21T20:27:25.735Z,10.80
2018-12-21T20:29:53.323Z,12.33
2018-12-21T20:32:22.033Z,13.80
2018-12-21T20:34:50.482Z,12.60
2018-12-21T20:37:18.651Z,6.97
2018-12-21T20:39:46.813Z,11.97
2018-12-21T20:42:14.800Z,10.63
2018-12-21T20:44:44.534Z,14.33
2018-12-21T20:47:12.145Z,13.37
2018-12-21T20:49:39.657Z,10.63
2018-12-21T20:52:08.005Z,9.80
2018-12-21T20:54:35.457Z,6.40
2018-12-21T20:57:03.535Z,4.93
2018-12-21T20:59:36.347Z,3.70
2018-12-21T21:02:04.646Z,6.87
2018-12-21T21:04:32.160Z,4.80
2018-12-21T21:07:00.515Z,6.33
2018-12-21T21:09:28.203Z,7.97
2018-12-21T21:11:55.602Z,6.90
2018-12-21T21:14:23.555Z,8.33
2018-12-21T21:16:51.066Z,8.33
2018-12-21T21:19:18.478Z,5.13
2018-12-21T21:21:46.141Z,11.67
2018-12-21T21:24:13.781Z,11.27
2018-12-21T21:26:42.202Z,13.03
2018-12-21T21:29:09.640Z,11.30
2018-12-21T21:31:38.483Z,10.60
2018-12-21T21:34:05.917Z,12.80
2018-12-21T21:36:33.383Z,11.87
2018-12-21T21:39:05.346Z,14.47
2018-12-21T21:41:32.785Z,13.90
2018-12-21T21:44:01.380Z,20.10
2018-12-21T21:46:28.991Z,28.07
2018-12-21T21:48:56.584Z,20.90
2018-12-21T21:51:24.135Z,29.87
2018-12-21T21:53:51.587Z,32.83
2018-12-21T21:56:19.465Z,32.03
2018-12-21T21:58:47.238Z,28.67
2018-12-21T22:01:14.912Z,34.30
2018-12-21T22:03:42.413Z,28.20
2018-12-21T22:06:10.192Z,34.93
2018-12-21T22:08:38.759Z,36.67
2018-12-21T22:11:06.256Z,31.03
2018-12-21T22:13:33.818Z,39.53
2018-12-21T22:16:01.340Z,35.07
2018-12-21T22:18:50.677Z,34.47
2018-12-21T22:21:19.226Z,41.30
2018-12-21T22:23:46.793Z,41.33
2018-12-21T22:26:14.562Z,44.13
2018-12-21T22:28:49.143Z,40.60
2018-12-21T22:31:24.306Z,44.93
2018-12-21T22:33:51.849Z,44.73
2018-12-21T22:36:19.357Z,39.97
2018-12-21T22:38:57.920Z,50.70
2018-12-21T22:41:34.073Z,41.93
2018-12-21T22:44:01.687Z,40.17
2018-12-21T22:46:31.098Z,47.37
2018-12-21T22:48:59.219Z,43.30
2018-12-21T22:51:28.001Z,38.57
2018-12-21T22:54:08.506Z,43.80
2018-12-21T22:56:39.539Z,44.20
2018-12-21T23:02:33.520Z,41.30
2018-12-21T23:05:01.107Z,32.03
2018-12-21T23:07:28.628Z,34.47
2018-12-21T23:09:56.218Z,33.90
2018-12-21T23:12:31.982Z,40.77
2018-12-21T23:14:59.491Z,29.73
2018-12-21T23:17:27.105Z,37.40
2018-12-21T23:19:54.680Z,36.90
2018-12-21T23:22:22.119Z,43.53
2018-12-21T23:24:49.641Z,30.63
2018-12-21T23:27:17.713Z,38.77
2018-12-21T23:29:45.243Z,28.33
2018-12-21T23:32:12.671Z,36.10
2018-12-21T23:34:41.096Z,32.97
2018-12-21T23:37:08.535Z,42.23
2018-12-21T23:39:36.501Z,35.70
2018-12-21T23:42:04.323Z,47.40
2018-12-21T23:44:31.822Z,40.07
2018-12-21T23:46:59.493Z,33.90
2018-12-21T23:49:30.956Z,35.43
2018-12-21T23:51:58.424Z,31.50
2018-12-21T23:54:26.209Z,39.87
2018-12-21T23:56:53.620Z,34.60
2018-12-21T23:59:21.037Z,40.63
